This is the latest recevied weather packets stored in our database for station/object DL6JOE-10. If no packets are shown the sender has not sent any weather packets the latest 10 day(s).
| Time | Temp. | Humidity | Pressure | Rain* | Wind** | Luminosity | Snow |
|---|---|---|---|---|---|---|---|
| 1788023614 | 27.22° C | 38% | 962 hPa | - | - | - | - |
| 1788023545 | 27.22° C | 38% | 962 hPa | - | - | - | - |
| 1788022645 | 27.78° C | 38% | 961.9 hPa | - | - | - | - |
| 1788021745 | 27.78° C | 37% | 962 hPa | - | - | - | - |
| 1788019944 | 27.78° C | 37% | 962 hPa | - | - | - | - |
| 1788017244 | 28.33° C | 37% | 962.4 hPa | - | - | - | - |
| 1788016344 | 28.89° C | 37% | 962.3 hPa | - | - | - | - |
| 1788015443 | 28.89° C | 35% | 962.3 hPa | - | - | - | - |
| 1788013643 | 29.44° C | 34% | 962.4 hPa | - | - | - | - |
| 1788012743 | 29.44° C | 36% | 962.5 hPa | - | - | - | - |
| 1788011843 | 30° C | 35% | 962.5 hPa | - | - | - | - |
| 1788010042 | 30.56° C | 34% | 962.6 hPa | - | - | - | - |
| 1788007342 | 30.56° C | 35% | 962.8 hPa | - | - | - | - |
| 1788006442 | 30° C | 35% | 963.1 hPa | - | - | - | - |
| 1788005542 | 30° C | 36% | 963.1 hPa | - | - | - | - |
| 1788004642 | 30° C | 37% | 963.3 hPa | - | - | - | - |
| 1788003742 | 29.44° C | 40% | 963.4 hPa | - | - | - | - |
| 1788002842 | 29.44° C | 40% | 963.4 hPa | - | - | - | - |
| 1788001942 | 28.89° C | 41% | 963.7 hPa | - | - | - | - |
| 1788001042 | 28.89° C | 41% | 963.7 hPa | - | - | - | - |
| 1788000141 | 28.89° C | 42% | 963.8 hPa | - | - | - | - |
| 1787999241 | 27.78° C | 44% | 964 hPa | - | - | - | - |
| 1787998341 | 27.78° C | 44% | 964.2 hPa | - | - | - | - |
| 1787997441 | 27.22° C | 46% | 964.4 hPa | - | - | - | - |
| 1787995641 | 25.56° C | 52% | 964.6 hPa | - | - | - | - |
* Rain since midnight (hover to see other rain measurements)
** Current wind speed in m/s (hover to see current wind gust speed)